sensor_id;sensor_type;location;lat;lon;timestamp;temperature;humidity
20590;DHT22;10453;50.810;12.540;2023-12-22T00:01:45;4.60;99.90
20590;DHT22;10453;50.810;12.540;2023-12-22T00:06:02;4.60;99.90
20590;DHT22;10453;50.810;12.540;2023-12-22T00:10:19;4.60;99.90
20590;DHT22;10453;50.810;12.540;2023-12-22T00:14:37;4.80;99.90
20590;DHT22;10453;50.810;12.540;2023-12-22T00:18:57;4.70;99.90
20590;DHT22;10453;50.810;12.540;2023-12-22T00:23:14;4.70;99.90
20590;DHT22;10453;50.810;12.540;2023-12-22T00:27:32;4.60;99.90
20590;DHT22;10453;50.810;12.540;2023-12-22T00:31:49;4.60;99.90
20590;DHT22;10453;50.810;12.540;2023-12-22T00:36:07;4.70;99.90
20590;DHT22;10453;50.810;12.540;2023-12-22T00:40:25;4.70;99.90
20590;DHT22;10453;50.810;12.540;2023-12-22T00:44:42;4.70;99.90
20590;DHT22;10453;50.810;12.540;2023-12-22T00:48:59;4.70;99.90
20590;DHT22;10453;50.810;12.540;2023-12-22T00:53:17;4.80;99.90
20590;DHT22;10453;50.810;12.540;2023-12-22T00:57:34;4.70;99.90
20590;DHT22;10453;50.810;12.540;2023-12-22T01:01:51;4.60;99.90
20590;DHT22;10453;50.810;12.540;2023-12-22T01:06:08;4.70;99.90
20590;DHT22;10453;50.810;12.540;2023-12-22T01:10:26;4.70;99.90
20590;DHT22;10453;50.810;12.540;2023-12-22T01:14:43;4.70;99.90
20590;DHT22;10453;50.810;12.540;2023-12-22T01:19:02;4.70;99.90
20590;DHT22;10453;50.810;12.540;2023-12-22T01:23:19;4.70;99.90
20590;DHT22;10453;50.810;12.540;2023-12-22T01:27:36;4.70;99.90
20590;DHT22;10453;50.810;12.540;2023-12-22T01:31:54;4.80;99.90
20590;DHT22;10453;50.810;12.540;2023-12-22T01:36:14;4.70;99.90
20590;DHT22;10453;50.810;12.540;2023-12-22T01:40:31;4.90;99.90
20590;DHT22;10453;50.810;12.540;2023-12-22T01:44:49;5.00;99.90
20590;DHT22;10453;50.810;12.540;2023-12-22T01:49:07;5.00;99.90
20590;DHT22;10453;50.810;12.540;2023-12-22T01:53:25;4.90;99.90
20590;DHT22;10453;50.810;12.540;2023-12-22T01:57:43;4.90;99.90
20590;DHT22;10453;50.810;12.540;2023-12-22T02:02:03;4.90;99.90
20590;DHT22;10453;50.810;12.540;2023-12-22T02:06:21;4.80;99.90
20590;DHT22;10453;50.810;12.540;2023-12-22T02:10:39;4.80;99.90
20590;DHT22;10453;50.810;12.540;2023-12-22T02:14:56;4.70;99.90
20590;DHT22;10453;50.810;12.540;2023-12-22T02:19:38;4.60;99.90
20590;DHT22;10453;50.810;12.540;2023-12-22T02:24:02;4.50;99.90
20590;DHT22;10453;50.810;12.540;2023-12-22T02:28:20;4.70;99.90
20590;DHT22;10453;50.810;12.540;2023-12-22T02:32:42;4.90;99.90
20590;DHT22;10453;50.810;12.540;2023-12-22T02:37:00;4.90;99.90
20590;DHT22;10453;50.810;12.540;2023-12-22T02:41:18;4.90;99.90
20590;DHT22;10453;50.810;12.540;2023-12-22T02:45:35;4.80;99.90
20590;DHT22;10453;50.810;12.540;2023-12-22T02:49:52;4.80;99.90
20590;DHT22;10453;50.810;12.540;2023-12-22T02:54:09;4.90;99.90
20590;DHT22;10453;50.810;12.540;2023-12-22T02:58:26;4.90;99.90
20590;DHT22;10453;50.810;12.540;2023-12-22T03:02:44;4.80;99.90
20590;DHT22;10453;50.810;12.540;2023-12-22T03:07:01;4.80;99.90
20590;DHT22;10453;50.810;12.540;2023-12-22T03:11:18;4.80;99.90
20590;DHT22;10453;50.810;12.540;2023-12-22T03:15:35;4.90;99.90
20590;DHT22;10453;50.810;12.540;2023-12-22T03:19:52;5.00;99.90
20590;DHT22;10453;50.810;12.540;2023-12-22T03:24:10;4.90;99.90
20590;DHT22;10453;50.810;12.540;2023-12-22T03:28:27;5.00;99.90
20590;DHT22;10453;50.810;12.540;2023-12-22T03:32:44;5.00;99.90
20590;DHT22;10453;50.810;12.540;2023-12-22T03:37:01;5.00;99.90
20590;DHT22;10453;50.810;12.540;2023-12-22T03:41:19;4.80;99.90
20590;DHT22;10453;50.810;12.540;2023-12-22T03:45:36;4.30;99.90
20590;DHT22;10453;50.810;12.540;2023-12-22T03:49:53;3.70;99.90
20590;DHT22;10453;50.810;12.540;2023-12-22T03:54:11;3.60;99.90
20590;DHT22;10453;50.810;12.540;2023-12-22T03:58:28;3.60;99.90
20590;DHT22;10453;50.810;12.540;2023-12-22T04:02:46;3.70;99.90
20590;DHT22;10453;50.810;12.540;2023-12-22T04:07:04;3.90;99.90
20590;DHT22;10453;50.810;12.540;2023-12-22T04:11:21;4.00;99.90
20590;DHT22;10453;50.810;12.540;2023-12-22T04:15:38;4.00;99.90
20590;DHT22;10453;50.810;12.540;2023-12-22T04:19:55;4.00;99.90
20590;DHT22;10453;50.810;12.540;2023-12-22T04:24:13;4.00;99.90
20590;DHT22;10453;50.810;12.540;2023-12-22T04:28:30;4.00;99.90
20590;DHT22;10453;50.810;12.540;2023-12-22T04:32:47;3.90;99.90
20590;DHT22;10453;50.810;12.540;2023-12-22T04:37:04;3.80;99.90
20590;DHT22;10453;50.810;12.540;2023-12-22T04:41:22;3.90;99.90
20590;DHT22;10453;50.810;12.540;2023-12-22T04:45:39;3.90;99.90
20590;DHT22;10453;50.810;12.540;2023-12-22T04:49:56;3.90;99.90
20590;DHT22;10453;50.810;12.540;2023-12-22T04:54:13;3.60;99.90
20590;DHT22;10453;50.810;12.540;2023-12-22T04:58:30;3.40;99.90
20590;DHT22;10453;50.810;12.540;2023-12-22T05:02:48;3.30;99.90
20590;DHT22;10453;50.810;12.540;2023-12-22T05:07:05;3.60;99.90
20590;DHT22;10453;50.810;12.540;2023-12-22T05:11:24;3.70;99.90
20590;DHT22;10453;50.810;12.540;2023-12-22T05:15:41;3.70;99.90
20590;DHT22;10453;50.810;12.540;2023-12-22T05:19:58;3.60;99.90
20590;DHT22;10453;50.810;12.540;2023-12-22T05:24:16;3.50;99.90
20590;DHT22;10453;50.810;12.540;2023-12-22T05:28:33;3.50;99.90
20590;DHT22;10453;50.810;12.540;2023-12-22T05:32:50;3.50;99.90
20590;DHT22;10453;50.810;12.540;2023-12-22T05:37:07;3.50;99.90
20590;DHT22;10453;50.810;12.540;2023-12-22T05:41:24;3.50;99.90
20590;DHT22;10453;50.810;12.540;2023-12-22T05:45:42;3.40;99.90
20590;DHT22;10453;50.810;12.540;2023-12-22T05:49:59;3.40;99.90
20590;DHT22;10453;50.810;12.540;2023-12-22T05:54:17;3.20;99.90
20590;DHT22;10453;50.810;12.540;2023-12-22T05:58:36;3.20;99.90
20590;DHT22;10453;50.810;12.540;2023-12-22T06:02:53;3.10;99.90
20590;DHT22;10453;50.810;12.540;2023-12-22T06:07:11;3.10;99.90
20590;DHT22;10453;50.810;12.540;2023-12-22T06:11:28;3.20;99.90
20590;DHT22;10453;50.810;12.540;2023-12-22T06:15:45;3.20;99.90
20590;DHT22;10453;50.810;12.540;2023-12-22T06:20:02;3.20;99.90
20590;DHT22;10453;50.810;12.540;2023-12-22T06:24:20;3.30;99.90
20590;DHT22;10453;50.810;12.540;2023-12-22T06:28:37;3.30;99.90
20590;DHT22;10453;50.810;12.540;2023-12-22T06:32:56;3.30;99.90
20590;DHT22;10453;50.810;12.540;2023-12-22T06:37:13;3.40;99.90
20590;DHT22;10453;50.810;12.540;2023-12-22T06:41:31;3.50;99.90
20590;DHT22;10453;50.810;12.540;2023-12-22T06:45:50;3.40;99.90
20590;DHT22;10453;50.810;12.540;2023-12-22T06:50:09;3.40;99.90
20590;DHT22;10453;50.810;12.540;2023-12-22T06:54:26;3.40;99.90
20590;DHT22;10453;50.810;12.540;2023-12-22T06:58:43;3.40;99.90
20590;DHT22;10453;50.810;12.540;2023-12-22T07:03:00;3.50;99.90
20590;DHT22;10453;50.810;12.540;2023-12-22T07:07:18;3.60;99.90
20590;DHT22;10453;50.810;12.540;2023-12-22T07:11:35;3.60;99.90
20590;DHT22;10453;50.810;12.540;2023-12-22T07:15:54;3.30;99.90
20590;DHT22;10453;50.810;12.540;2023-12-22T07:20:11;2.70;99.90
20590;DHT22;10453;50.810;12.540;2023-12-22T07:24:29;2.40;99.90
20590;DHT22;10453;50.810;12.540;2023-12-22T07:28:46;2.10;99.90
20590;DHT22;10453;50.810;12.540;2023-12-22T07:33:04;1.70;99.90
20590;DHT22;10453;50.810;12.540;2023-12-22T07:37:22;1.40;99.90
20590;DHT22;10453;50.810;12.540;2023-12-22T07:41:40;1.20;99.90
20590;DHT22;10453;50.810;12.540;2023-12-22T07:45:57;1.10;99.90
20590;DHT22;10453;50.810;12.540;2023-12-22T07:50:14;1.30;99.90
20590;DHT22;10453;50.810;12.540;2023-12-22T07:54:33;1.40;99.90
20590;DHT22;10453;50.810;12.540;2023-12-22T07:58:50;1.50;99.90
20590;DHT22;10453;50.810;12.540;2023-12-22T08:03:08;1.70;99.90
20590;DHT22;10453;50.810;12.540;2023-12-22T08:07:25;1.90;99.90
20590;DHT22;10453;50.810;12.540;2023-12-22T08:11:42;2.10;99.90
20590;DHT22;10453;50.810;12.540;2023-12-22T08:16:03;2.30;99.90
20590;DHT22;10453;50.810;12.540;2023-12-22T08:20:21;2.60;99.90
20590;DHT22;10453;50.810;12.540;2023-12-22T08:24:46;2.90;99.90
20590;DHT22;10453;50.810;12.540;2023-12-22T08:29:05;2.90;99.90
20590;DHT22;10453;50.810;12.540;2023-12-22T08:33:22;2.80;99.90
20590;DHT22;10453;50.810;12.540;2023-12-22T08:37:39;2.50;99.90
20590;DHT22;10453;50.810;12.540;2023-12-22T08:41:57;2.20;99.90
20590;DHT22;10453;50.810;12.540;2023-12-22T08:46:14;2.00;99.90
20590;DHT22;10453;50.810;12.540;2023-12-22T08:50:32;1.80;99.90
20590;DHT22;10453;50.810;12.540;2023-12-22T08:54:49;1.50;99.90
20590;DHT22;10453;50.810;12.540;2023-12-22T08:59:06;1.30;99.90
20590;DHT22;10453;50.810;12.540;2023-12-22T09:03:25;1.10;99.90
20590;DHT22;10453;50.810;12.540;2023-12-22T09:07:44;1.00;99.90
20590;DHT22;10453;50.810;12.540;2023-12-22T09:12:01;1.00;99.90
20590;DHT22;10453;50.810;12.540;2023-12-22T09:16:22;1.10;99.90
20590;DHT22;10453;50.810;12.540;2023-12-22T09:20:40;1.20;99.90
20590;DHT22;10453;50.810;12.540;2023-12-22T09:24:57;1.30;99.90
20590;DHT22;10453;50.810;12.540;2023-12-22T09:29:16;1.30;99.90
20590;DHT22;10453;50.810;12.540;2023-12-22T09:33:34;1.30;99.90
20590;DHT22;10453;50.810;12.540;2023-12-22T09:37:51;1.30;99.90
20590;DHT22;10453;50.810;12.540;2023-12-22T09:42:09;1.40;99.90
20590;DHT22;10453;50.810;12.540;2023-12-22T09:46:27;1.50;99.90
20590;DHT22;10453;50.810;12.540;2023-12-22T09:50:44;1.60;99.90
20590;DHT22;10453;50.810;12.540;2023-12-22T09:55:03;1.90;99.90
20590;DHT22;10453;50.810;12.540;2023-12-22T09:59:21;2.00;99.90
20590;DHT22;10453;50.810;12.540;2023-12-22T10:03:39;2.30;99.90
20590;DHT22;10453;50.810;12.540;2023-12-22T10:08:02;2.30;99.90
20590;DHT22;10453;50.810;12.540;2023-12-22T10:12:21;2.50;99.90
20590;DHT22;10453;50.810;12.540;2023-12-22T10:16:38;2.80;99.90
20590;DHT22;10453;50.810;12.540;2023-12-22T10:20:56;3.50;99.90
20590;DHT22;10453;50.810;12.540;2023-12-22T10:25:20;3.90;99.90
20590;DHT22;10453;50.810;12.540;2023-12-22T10:29:38;4.00;99.90
20590;DHT22;10453;50.810;12.540;2023-12-22T10:33:57;4.00;99.90
20590;DHT22;10453;50.810;12.540;2023-12-22T10:38:14;4.30;99.90
20590;DHT22;10453;50.810;12.540;2023-12-22T10:42:32;4.20;99.90
20590;DHT22;10453;50.810;12.540;2023-12-22T10:46:49;4.30;99.90
20590;DHT22;10453;50.810;12.540;2023-12-22T10:51:10;4.40;99.90
20590;DHT22;10453;50.810;12.540;2023-12-22T10:55:28;4.50;99.90
20590;DHT22;10453;50.810;12.540;2023-12-22T10:59:46;4.40;99.90
20590;DHT22;10453;50.810;12.540;2023-12-22T11:04:16;4.50;99.90
20590;DHT22;10453;50.810;12.540;2023-12-22T11:08:36;4.60;99.90
20590;DHT22;10453;50.810;12.540;2023-12-22T11:12:55;4.70;99.90
20590;DHT22;10453;50.810;12.540;2023-12-22T11:17:14;4.70;99.90
20590;DHT22;10453;50.810;12.540;2023-12-22T11:21:31;4.80;99.90
20590;DHT22;10453;50.810;12.540;2023-12-22T11:25:50;4.80;99.90
20590;DHT22;10453;50.810;12.540;2023-12-22T11:30:12;4.80;99.90
20590;DHT22;10453;50.810;12.540;2023-12-22T11:34:31;4.90;99.90
20590;DHT22;10453;50.810;12.540;2023-12-22T11:38:49;5.00;99.90
20590;DHT22;10453;50.810;12.540;2023-12-22T11:43:07;5.20;99.90
20590;DHT22;10453;50.810;12.540;2023-12-22T11:47:25;5.10;99.90
20590;DHT22;10453;50.810;12.540;2023-12-22T11:51:45;5.10;99.90
20590;DHT22;10453;50.810;12.540;2023-12-22T11:56:04;5.10;99.90
20590;DHT22;10453;50.810;12.540;2023-12-22T12:04:40;5.20;99.90
20590;DHT22;10453;50.810;12.540;2023-12-22T12:08:59;5.30;99.90
20590;DHT22;10453;50.810;12.540;2023-12-22T12:13:22;5.30;99.90
20590;DHT22;10453;50.810;12.540;2023-12-22T12:17:41;5.30;99.90
20590;DHT22;10453;50.810;12.540;2023-12-22T12:22:00;5.30;99.90
20590;DHT22;10453;50.810;12.540;2023-12-22T12:26:17;5.20;99.90
20590;DHT22;10453;50.810;12.540;2023-12-22T12:30:36;5.10;99.90
20590;DHT22;10453;50.810;12.540;2023-12-22T12:34:54;5.10;99.90
20590;DHT22;10453;50.810;12.540;2023-12-22T12:39:17;5.20;99.90
20590;DHT22;10453;50.810;12.540;2023-12-22T12:43:36;5.20;99.90
20590;DHT22;10453;50.810;12.540;2023-12-22T12:48:02;5.10;99.90
20590;DHT22;10453;50.810;12.540;2023-12-22T12:52:22;5.10;99.90
20590;DHT22;10453;50.810;12.540;2023-12-22T12:56:44;5.20;99.90
20590;DHT22;10453;50.810;12.540;2023-12-22T13:01:08;5.20;99.90
20590;DHT22;10453;50.810;12.540;2023-12-22T13:05:38;5.10;99.90
20590;DHT22;10453;50.810;12.540;2023-12-22T13:09:58;5.10;99.90
20590;DHT22;10453;50.810;12.540;2023-12-22T13:14:22;5.20;99.90
20590;DHT22;10453;50.810;12.540;2023-12-22T13:18:42;5.20;99.90
20590;DHT22;10453;50.810;12.540;2023-12-22T13:22:59;5.20;99.90
20590;DHT22;10453;50.810;12.540;2023-12-22T13:27:17;5.20;99.90
20590;DHT22;10453;50.810;12.540;2023-12-22T13:31:37;5.20;99.90
20590;DHT22;10453;50.810;12.540;2023-12-22T13:35:58;5.30;99.90
20590;DHT22;10453;50.810;12.540;2023-12-22T13:40:15;5.40;99.90
20590;DHT22;10453;50.810;12.540;2023-12-22T13:44:33;5.30;99.90
20590;DHT22;10453;50.810;12.540;2023-12-22T13:48:53;5.40;99.90
20590;DHT22;10453;50.810;12.540;2023-12-22T13:53:11;5.50;99.90
20590;DHT22;10453;50.810;12.540;2023-12-22T13:57:29;5.40;99.90
20590;DHT22;10453;50.810;12.540;2023-12-22T14:01:46;5.60;99.90
20590;DHT22;10453;50.810;12.540;2023-12-22T14:06:03;5.60;99.90
20590;DHT22;10453;50.810;12.540;2023-12-22T14:10:21;5.60;99.90
20590;DHT22;10453;50.810;12.540;2023-12-22T14:14:39;5.60;99.90
20590;DHT22;10453;50.810;12.540;2023-12-22T14:18:56;5.60;99.90
20590;DHT22;10453;50.810;12.540;2023-12-22T14:23:14;5.60;99.90
20590;DHT22;10453;50.810;12.540;2023-12-22T14:27:35;5.70;99.90
20590;DHT22;10453;50.810;12.540;2023-12-22T14:31:52;5.60;99.90
20590;DHT22;10453;50.810;12.540;2023-12-22T14:36:09;5.60;99.90
20590;DHT22;10453;50.810;12.540;2023-12-22T14:40:27;5.60;99.90
20590;DHT22;10453;50.810;12.540;2023-12-22T14:44:44;5.60;99.90
20590;DHT22;10453;50.810;12.540;2023-12-22T14:49:01;5.70;99.90
20590;DHT22;10453;50.810;12.540;2023-12-22T14:53:20;5.60;99.90
20590;DHT22;10453;50.810;12.540;2023-12-22T14:57:38;5.70;99.90
20590;DHT22;10453;50.810;12.540;2023-12-22T15:01:56;5.70;99.90
20590;DHT22;10453;50.810;12.540;2023-12-22T15:06:14;5.70;99.90
20590;DHT22;10453;50.810;12.540;2023-12-22T15:10:31;5.70;99.90
20590;DHT22;10453;50.810;12.540;2023-12-22T15:14:50;5.70;99.90
20590;DHT22;10453;50.810;12.540;2023-12-22T15:19:07;5.70;99.90
20590;DHT22;10453;50.810;12.540;2023-12-22T15:23:24;5.60;99.90
20590;DHT22;10453;50.810;12.540;2023-12-22T15:27:43;5.70;99.90
20590;DHT22;10453;50.810;12.540;2023-12-22T15:32:01;5.70;99.90
20590;DHT22;10453;50.810;12.540;2023-12-22T15:36:19;5.70;99.90
20590;DHT22;10453;50.810;12.540;2023-12-22T15:40:36;5.70;99.90
20590;DHT22;10453;50.810;12.540;2023-12-22T15:44:54;5.80;99.90
20590;DHT22;10453;50.810;12.540;2023-12-22T15:49:12;5.80;99.90
20590;DHT22;10453;50.810;12.540;2023-12-22T15:53:29;5.80;99.90
20590;DHT22;10453;50.810;12.540;2023-12-22T15:57:46;5.80;99.90
20590;DHT22;10453;50.810;12.540;2023-12-22T16:02:04;5.80;99.90
20590;DHT22;10453;50.810;12.540;2023-12-22T16:06:23;5.70;99.90
20590;DHT22;10453;50.810;12.540;2023-12-22T16:10:41;5.60;99.90
20590;DHT22;10453;50.810;12.540;2023-12-22T16:14:58;5.50;99.90
20590;DHT22;10453;50.810;12.540;2023-12-22T16:19:16;5.40;99.90
20590;DHT22;10453;50.810;12.540;2023-12-22T16:23:34;5.30;99.90
20590;DHT22;10453;50.810;12.540;2023-12-22T16:27:51;5.40;99.90
20590;DHT22;10453;50.810;12.540;2023-12-22T16:32:08;5.40;99.90
20590;DHT22;10453;50.810;12.540;2023-12-22T16:36:28;5.40;99.90
20590;DHT22;10453;50.810;12.540;2023-12-22T16:40:47;5.40;99.90
20590;DHT22;10453;50.810;12.540;2023-12-22T16:45:07;5.40;99.90
20590;DHT22;10453;50.810;12.540;2023-12-22T16:49:26;5.40;99.90
20590;DHT22;10453;50.810;12.540;2023-12-22T16:53:43;5.20;99.90
20590;DHT22;10453;50.810;12.540;2023-12-22T16:58:00;5.10;99.90
20590;DHT22;10453;50.810;12.540;2023-12-22T17:02:20;4.90;99.90
20590;DHT22;10453;50.810;12.540;2023-12-22T17:06:51;4.80;99.90
20590;DHT22;10453;50.810;12.540;2023-12-22T17:11:10;4.60;99.90
20590;DHT22;10453;50.810;12.540;2023-12-22T17:15:28;4.40;99.90
20590;DHT22;10453;50.810;12.540;2023-12-22T17:19:45;4.40;99.90
20590;DHT22;10453;50.810;12.540;2023-12-22T17:24:02;4.40;99.90
20590;DHT22;10453;50.810;12.540;2023-12-22T17:28:20;4.30;99.90
20590;DHT22;10453;50.810;12.540;2023-12-22T17:32:37;4.30;99.90
20590;DHT22;10453;50.810;12.540;2023-12-22T17:36:54;4.40;99.90
20590;DHT22;10453;50.810;12.540;2023-12-22T17:41:12;4.30;99.90
20590;DHT22;10453;50.810;12.540;2023-12-22T17:45:29;4.30;99.90
20590;DHT22;10453;50.810;12.540;2023-12-22T17:49:46;4.40;99.90
20590;DHT22;10453;50.810;12.540;2023-12-22T17:54:04;4.30;99.90
20590;DHT22;10453;50.810;12.540;2023-12-22T17:58:21;4.40;99.90
20590;DHT22;10453;50.810;12.540;2023-12-22T18:02:39;4.40;99.90
20590;DHT22;10453;50.810;12.540;2023-12-22T18:06:57;4.50;99.90
20590;DHT22;10453;50.810;12.540;2023-12-22T18:11:16;4.70;99.90
20590;DHT22;10453;50.810;12.540;2023-12-22T18:15:33;4.70;99.90
20590;DHT22;10453;50.810;12.540;2023-12-22T18:19:51;4.90;99.90
20590;DHT22;10453;50.810;12.540;2023-12-22T18:24:08;5.10;99.90
20590;DHT22;10453;50.810;12.540;2023-12-22T18:28:25;5.20;99.90
20590;DHT22;10453;50.810;12.540;2023-12-22T18:32:43;5.40;99.90
20590;DHT22;10453;50.810;12.540;2023-12-22T18:37:01;5.40;99.90
20590;DHT22;10453;50.810;12.540;2023-12-22T18:41:19;5.50;99.90
20590;DHT22;10453;50.810;12.540;2023-12-22T18:45:36;5.60;99.90
20590;DHT22;10453;50.810;12.540;2023-12-22T18:49:54;5.60;99.90
20590;DHT22;10453;50.810;12.540;2023-12-22T18:54:11;5.60;99.90
20590;DHT22;10453;50.810;12.540;2023-12-22T18:58:30;5.70;99.90
20590;DHT22;10453;50.810;12.540;2023-12-22T19:02:47;5.80;99.90
20590;DHT22;10453;50.810;12.540;2023-12-22T19:07:15;5.70;99.90
20590;DHT22;10453;50.810;12.540;2023-12-22T19:11:32;5.80;99.90
20590;DHT22;10453;50.810;12.540;2023-12-22T19:15:49;5.80;99.90
20590;DHT22;10453;50.810;12.540;2023-12-22T19:20:07;5.70;99.90
20590;DHT22;10453;50.810;12.540;2023-12-22T19:24:25;4.40;99.90
20590;DHT22;10453;50.810;12.540;2023-12-22T19:28:43;3.30;99.90
20590;DHT22;10453;50.810;12.540;2023-12-22T19:33:00;2.90;99.90
20590;DHT22;10453;50.810;12.540;2023-12-22T19:37:19;2.60;99.90
20590;DHT22;10453;50.810;12.540;2023-12-22T19:41:36;2.50;99.90
20590;DHT22;10453;50.810;12.540;2023-12-22T19:45:53;2.40;99.90
20590;DHT22;10453;50.810;12.540;2023-12-22T19:50:11;2.40;99.90
20590;DHT22;10453;50.810;12.540;2023-12-22T19:54:29;2.60;99.90
20590;DHT22;10453;50.810;12.540;2023-12-22T19:58:46;2.60;99.90
20590;DHT22;10453;50.810;12.540;2023-12-22T20:03:03;2.60;99.90
20590;DHT22;10453;50.810;12.540;2023-12-22T20:07:21;2.60;99.90
20590;DHT22;10453;50.810;12.540;2023-12-22T20:11:39;2.60;99.90
20590;DHT22;10453;50.810;12.540;2023-12-22T20:15:57;2.60;99.90
20590;DHT22;10453;50.810;12.540;2023-12-22T20:20:14;2.50;99.90
20590;DHT22;10453;50.810;12.540;2023-12-22T20:24:34;2.50;99.90
20590;DHT22;10453;50.810;12.540;2023-12-22T20:28:52;2.50;99.90
20590;DHT22;10453;50.810;12.540;2023-12-22T20:33:10;2.30;99.90
20590;DHT22;10453;50.810;12.540;2023-12-22T20:37:28;2.20;99.90
20590;DHT22;10453;50.810;12.540;2023-12-22T20:41:45;2.30;99.90
20590;DHT22;10453;50.810;12.540;2023-12-22T20:46:02;2.20;99.90
20590;DHT22;10453;50.810;12.540;2023-12-22T20:50:21;2.20;99.90
20590;DHT22;10453;50.810;12.540;2023-12-22T20:54:39;2.10;99.90
20590;DHT22;10453;50.810;12.540;2023-12-22T20:58:57;1.90;99.90
20590;DHT22;10453;50.810;12.540;2023-12-22T21:03:15;1.60;99.90
20590;DHT22;10453;50.810;12.540;2023-12-22T21:07:33;1.50;99.90
20590;DHT22;10453;50.810;12.540;2023-12-22T21:11:51;1.50;99.90
20590;DHT22;10453;50.810;12.540;2023-12-22T21:16:08;1.70;99.90
20590;DHT22;10453;50.810;12.540;2023-12-22T21:20:26;1.80;99.90
20590;DHT22;10453;50.810;12.540;2023-12-22T21:24:43;2.10;99.90
20590;DHT22;10453;50.810;12.540;2023-12-22T21:29:00;2.10;99.90
20590;DHT22;10453;50.810;12.540;2023-12-22T21:33:19;2.20;99.90
20590;DHT22;10453;50.810;12.540;2023-12-22T21:37:36;2.30;99.90
20590;DHT22;10453;50.810;12.540;2023-12-22T21:41:54;2.40;99.90
20590;DHT22;10453;50.810;12.540;2023-12-22T21:46:12;2.50;99.90
20590;DHT22;10453;50.810;12.540;2023-12-22T21:50:31;2.50;99.90
20590;DHT22;10453;50.810;12.540;2023-12-22T21:54:48;2.60;99.90
20590;DHT22;10453;50.810;12.540;2023-12-22T21:59:06;2.60;99.90
20590;DHT22;10453;50.810;12.540;2023-12-22T22:03:23;2.60;99.90
20590;DHT22;10453;50.810;12.540;2023-12-22T22:07:45;2.60;99.90
20590;DHT22;10453;50.810;12.540;2023-12-22T22:12:03;2.60;99.90
20590;DHT22;10453;50.810;12.540;2023-12-22T22:16:20;2.60;99.90
20590;DHT22;10453;50.810;12.540;2023-12-22T22:20:38;2.70;99.90
20590;DHT22;10453;50.810;12.540;2023-12-22T22:24:55;2.70;99.90
20590;DHT22;10453;50.810;12.540;2023-12-22T22:29:13;2.60;99.90
20590;DHT22;10453;50.810;12.540;2023-12-22T22:33:33;2.70;99.90
20590;DHT22;10453;50.810;12.540;2023-12-22T22:37:50;2.80;99.90
20590;DHT22;10453;50.810;12.540;2023-12-22T22:42:08;2.90;99.90
20590;DHT22;10453;50.810;12.540;2023-12-22T22:46:25;2.90;99.90
20590;DHT22;10453;50.810;12.540;2023-12-22T22:50:42;2.90;99.90
20590;DHT22;10453;50.810;12.540;2023-12-22T22:55:00;3.00;99.90
20590;DHT22;10453;50.810;12.540;2023-12-22T22:59:17;2.90;99.90
20590;DHT22;10453;50.810;12.540;2023-12-22T23:03:35;2.90;99.90
20590;DHT22;10453;50.810;12.540;2023-12-22T23:07:53;2.90;99.90
20590;DHT22;10453;50.810;12.540;2023-12-22T23:12:11;3.00;99.90
20590;DHT22;10453;50.810;12.540;2023-12-22T23:16:28;3.10;99.90
20590;DHT22;10453;50.810;12.540;2023-12-22T23:20:46;3.20;99.90
20590;DHT22;10453;50.810;12.540;2023-12-22T23:25:03;3.30;99.90
20590;DHT22;10453;50.810;12.540;2023-12-22T23:29:21;3.50;99.90
20590;DHT22;10453;50.810;12.540;2023-12-22T23:33:38;3.70;99.90
20590;DHT22;10453;50.810;12.540;2023-12-22T23:37:56;3.90;99.90
20590;DHT22;10453;50.810;12.540;2023-12-22T23:42:13;4.00;99.90
20590;DHT22;10453;50.810;12.540;2023-12-22T23:46:30;4.10;99.90
20590;DHT22;10453;50.810;12.540;2023-12-22T23:50:47;4.30;99.90
20590;DHT22;10453;50.810;12.540;2023-12-22T23:55:05;4.40;99.90
20590;DHT22;10453;50.810;12.540;2023-12-22T23:59:22;4.50;99.90
